This is the latest recevied weather packets stored in our database for station/object N5CNB. If no packets are shown the sender has not sent any weather packets the latest 10 day(s).
| Time | Temp. | Humidity | Pressure | Rain* | Wind** | Luminosity | Snow |
|---|---|---|---|---|---|---|---|
| 1777482901 | 28.89° C | 74% | 1012.8 hPa | 0 mm | - | - | - |
| 1777482005 | 28.89° C | 73% | 1013.1 hPa | 0 mm | - | - | - |
| 1777481110 | 28.89° C | 74% | 1013.2 hPa | 0 mm | - | - | - |
| 1777480210 | 28.33° C | 73% | 1013.2 hPa | 0 mm | - | - | - |
| 1777478404 | 27.78° C | 78% | 1013 hPa | 0 mm | - | - | - |
| 1777477508 | 27.22° C | 80% | 1013.3 hPa | 0 mm | - | - | - |
| 1777476608 | 26.67° C | 82% | 1013.4 hPa | 0 mm | - | - | - |
| 1777471213 | 25° C | 86% | 1012.9 hPa | 0 mm | - | - | - |
| 1777470320 | 24.44° C | 87% | 1012.5 hPa | 0 mm | - | - | - |
| 1777468508 | 24.44° C | 88% | 1011.7 hPa | 0 mm | - | - | - |
| 1777467612 | 24.44° C | 89% | 1012.1 hPa | 0 mm | - | - | - |
| 1777466714 | 23.89° C | 89% | 1012.1 hPa | 0 mm | - | - | - |
| 1777465818 | 23.89° C | 88% | 1011.7 hPa | 0 mm | - | - | - |
| 1777461331 | 23.89° C | 88% | 1011.4 hPa | 0 mm | - | - | - |
| 1777460408 | 24.44° C | 88% | 1011.3 hPa | 0 mm | - | - | - |
| 1777459508 | 24.44° C | 88% | 1011.2 hPa | 0 mm | - | - | - |
| 1777458617 | 24.44° C | 88% | 1011.2 hPa | 0 mm | - | - | - |
| 1777457720 | 24.44° C | 88% | 1011.3 hPa | 0 mm | - | - | - |
| 1777456822 | 24.44° C | 88% | 1011.2 hPa | 0 mm | - | - | - |
| 1777455906 | 24.44° C | 88% | 1011.1 hPa | 0 mm | - | - | - |
| 1777455012 | 24.44° C | 88% | 1011.1 hPa | 0 mm | - | - | - |
| 1777454119 | 24.44° C | 88% | 1011.3 hPa | 0 mm | - | - | - |
| 1777453220 | 24.44° C | 88% | 1011.4 hPa | 0 mm | - | - | - |
| 1777452324 | 24.44° C | 88% | 1011.6 hPa | 0 mm | - | - | - |
| 1777451411 | 24.44° C | 88% | 1011.5 hPa | 0 mm | - | - | - |
* Rain latest hour (hover to see other rain measurements)
** Current wind speed in m/s (hover to see current wind gust speed)